sensor_id;sensor_type;location;lat;lon;timestamp;P1;durP1;ratioP1;P2;durP2;ratioP2
1354;SDS011;671;48.972;9.276;2022-09-24T00:01:26;0.53;;;0.53;;
1354;SDS011;671;48.972;9.276;2022-09-24T00:03:55;0.50;;;0.50;;
1354;SDS011;671;48.972;9.276;2022-09-24T00:06:25;0.40;;;0.37;;
1354;SDS011;671;48.972;9.276;2022-09-24T00:08:54;0.50;;;0.50;;
1354;SDS011;671;48.972;9.276;2022-09-24T00:11:22;0.40;;;0.33;;
1354;SDS011;671;48.972;9.276;2022-09-24T00:13:50;0.40;;;0.30;;
1354;SDS011;671;48.972;9.276;2022-09-24T00:16:18;0.40;;;0.30;;
1354;SDS011;671;48.972;9.276;2022-09-24T00:18:47;0.50;;;0.50;;
1354;SDS011;671;48.972;9.276;2022-09-24T00:23:52;0.43;;;0.43;;
1354;SDS011;671;48.972;9.276;2022-09-24T00:26:21;0.40;;;0.40;;
1354;SDS011;671;48.972;9.276;2022-09-24T00:29:07;0.47;;;0.47;;
1354;SDS011;671;48.972;9.276;2022-09-24T00:31:34;0.40;;;0.40;;
1354;SDS011;671;48.972;9.276;2022-09-24T00:34:02;0.47;;;0.47;;
1354;SDS011;671;48.972;9.276;2022-09-24T00:36:29;0.50;;;0.50;;
1354;SDS011;671;48.972;9.276;2022-09-24T00:38:57;0.40;;;0.40;;
1354;SDS011;671;48.972;9.276;2022-09-24T00:41:25;0.30;;;0.23;;
1354;SDS011;671;48.972;9.276;2022-09-24T00:43:54;0.60;;;0.60;;
1354;SDS011;671;48.972;9.276;2022-09-24T00:49:19;0.50;;;0.50;;
1354;SDS011;671;48.972;9.276;2022-09-24T00:51:47;0.50;;;0.50;;
1354;SDS011;671;48.972;9.276;2022-09-24T00:54:17;0.50;;;0.50;;
1354;SDS011;671;48.972;9.276;2022-09-24T00:56:48;0.30;;;0.30;;
1354;SDS011;671;48.972;9.276;2022-09-24T00:59:16;0.40;;;0.40;;
1354;SDS011;671;48.972;9.276;2022-09-24T01:01:46;0.40;;;0.40;;
1354;SDS011;671;48.972;9.276;2022-09-24T01:04:15;0.50;;;0.50;;
1354;SDS011;671;48.972;9.276;2022-09-24T01:06:44;0.40;;;0.40;;
1354;SDS011;671;48.972;9.276;2022-09-24T01:09:10;0.40;;;0.40;;
1354;SDS011;671;48.972;9.276;2022-09-24T01:19:54;0.40;;;0.40;;
1354;SDS011;671;48.972;9.276;2022-09-24T01:30:45;0.50;;;0.50;;
1354;SDS011;671;48.972;9.276;2022-09-24T01:33:16;0.40;;;0.40;;
1354;SDS011;671;48.972;9.276;2022-09-24T01:35:48;0.60;;;0.60;;
1354;SDS011;671;48.972;9.276;2022-09-24T01:38:28;0.50;;;0.50;;
1354;SDS011;671;48.972;9.276;2022-09-24T01:40:59;0.40;;;0.40;;
1354;SDS011;671;48.972;9.276;2022-09-24T01:43:28;0.40;;;0.40;;
1354;SDS011;671;48.972;9.276;2022-09-24T01:45:55;0.50;;;0.50;;
1354;SDS011;671;48.972;9.276;2022-09-24T01:48:24;0.43;;;0.43;;
1354;SDS011;671;48.972;9.276;2022-09-24T01:50:59;0.40;;;0.40;;
1354;SDS011;671;48.972;9.276;2022-09-24T01:53:36;0.40;;;0.40;;
1354;SDS011;671;48.972;9.276;2022-09-24T01:56:21;0.40;;;0.30;;
1354;SDS011;671;48.972;9.276;2022-09-24T01:58:59;0.50;;;0.50;;
1354;SDS011;671;48.972;9.276;2022-09-24T02:01:33;0.40;;;0.40;;
1354;SDS011;671;48.972;9.276;2022-09-24T02:04:26;0.30;;;0.30;;
1354;SDS011;671;48.972;9.276;2022-09-24T02:06:55;0.30;;;0.30;;
1354;SDS011;671;48.972;9.276;2022-09-24T02:09:37;0.50;;;0.50;;
1354;SDS011;671;48.972;9.276;2022-09-24T02:12:16;0.47;;;0.47;;
1354;SDS011;671;48.972;9.276;2022-09-24T02:14:53;0.40;;;0.40;;
1354;SDS011;671;48.972;9.276;2022-09-24T02:17:26;0.50;;;0.50;;
1354;SDS011;671;48.972;9.276;2022-09-24T02:19:57;0.40;;;0.40;;
1354;SDS011;671;48.972;9.276;2022-09-24T02:22:28;0.40;;;0.30;;
1354;SDS011;671;48.972;9.276;2022-09-24T02:24:59;0.50;;;0.50;;
1354;SDS011;671;48.972;9.276;2022-09-24T02:27:28;0.40;;;0.40;;
1354;SDS011;671;48.972;9.276;2022-09-24T02:29:56;0.40;;;0.40;;
1354;SDS011;671;48.972;9.276;2022-09-24T02:32:24;0.50;;;0.50;;
1354;SDS011;671;48.972;9.276;2022-09-24T02:34:56;0.60;;;0.60;;
1354;SDS011;671;48.972;9.276;2022-09-24T02:37:27;0.40;;;0.40;;
1354;SDS011;671;48.972;9.276;2022-09-24T02:39:58;0.40;;;0.40;;
1354;SDS011;671;48.972;9.276;2022-09-24T02:42:25;0.50;;;0.50;;
1354;SDS011;671;48.972;9.276;2022-09-24T02:44:51;0.50;;;0.50;;
1354;SDS011;671;48.972;9.276;2022-09-24T02:47:22;0.50;;;0.50;;
1354;SDS011;671;48.972;9.276;2022-09-24T02:49:49;0.50;;;0.50;;
1354;SDS011;671;48.972;9.276;2022-09-24T02:52:15;0.40;;;0.40;;
1354;SDS011;671;48.972;9.276;2022-09-24T02:54:41;0.60;;;0.60;;
1354;SDS011;671;48.972;9.276;2022-09-24T02:57:08;0.50;;;0.50;;
1354;SDS011;671;48.972;9.276;2022-09-24T02:59:34;0.47;;;0.47;;
1354;SDS011;671;48.972;9.276;2022-09-24T03:02:01;0.40;;;0.30;;
1354;SDS011;671;48.972;9.276;2022-09-24T03:04:27;0.40;;;0.37;;
1354;SDS011;671;48.972;9.276;2022-09-24T03:06:55;0.50;;;0.50;;
1354;SDS011;671;48.972;9.276;2022-09-24T03:09:22;0.50;;;0.50;;
1354;SDS011;671;48.972;9.276;2022-09-24T03:11:48;0.40;;;0.40;;
1354;SDS011;671;48.972;9.276;2022-09-24T03:14:15;0.40;;;0.33;;
1354;SDS011;671;48.972;9.276;2022-09-24T03:16:41;0.50;;;0.50;;
1354;SDS011;671;48.972;9.276;2022-09-24T03:19:08;0.50;;;0.50;;
1354;SDS011;671;48.972;9.276;2022-09-24T03:21:34;0.40;;;0.40;;
1354;SDS011;671;48.972;9.276;2022-09-24T03:24:01;0.40;;;0.40;;
1354;SDS011;671;48.972;9.276;2022-09-24T03:26:28;0.50;;;0.50;;
1354;SDS011;671;48.972;9.276;2022-09-24T03:28:55;0.50;;;0.50;;
1354;SDS011;671;48.972;9.276;2022-09-24T03:31:21;0.30;;;0.30;;
1354;SDS011;671;48.972;9.276;2022-09-24T03:33:49;0.53;;;0.53;;
1354;SDS011;671;48.972;9.276;2022-09-24T03:36:16;0.50;;;0.50;;
1354;SDS011;671;48.972;9.276;2022-09-24T03:38:48;0.60;;;0.60;;
1354;SDS011;671;48.972;9.276;2022-09-24T03:41:16;0.40;;;0.40;;
1354;SDS011;671;48.972;9.276;2022-09-24T03:43:43;0.40;;;0.40;;
1354;SDS011;671;48.972;9.276;2022-09-24T03:46:10;0.53;;;0.53;;
1354;SDS011;671;48.972;9.276;2022-09-24T03:48:38;0.50;;;0.50;;
1354;SDS011;671;48.972;9.276;2022-09-24T03:51:06;0.50;;;0.50;;
1354;SDS011;671;48.972;9.276;2022-09-24T03:53:37;0.47;;;0.47;;
1354;SDS011;671;48.972;9.276;2022-09-24T03:56:04;0.50;;;0.50;;
1354;SDS011;671;48.972;9.276;2022-09-24T03:58:32;0.40;;;0.40;;
1354;SDS011;671;48.972;9.276;2022-09-24T04:01:06;0.53;;;0.53;;
1354;SDS011;671;48.972;9.276;2022-09-24T04:03:35;0.40;;;0.40;;
1354;SDS011;671;48.972;9.276;2022-09-24T04:06:02;0.40;;;0.40;;
1354;SDS011;671;48.972;9.276;2022-09-24T04:08:29;0.40;;;0.37;;
1354;SDS011;671;48.972;9.276;2022-09-24T04:10:56;0.40;;;0.40;;
1354;SDS011;671;48.972;9.276;2022-09-24T04:13:23;0.60;;;0.60;;
1354;SDS011;671;48.972;9.276;2022-09-24T04:15:50;0.50;;;0.50;;
1354;SDS011;671;48.972;9.276;2022-09-24T04:18:17;0.40;;;0.40;;
1354;SDS011;671;48.972;9.276;2022-09-24T04:20:44;0.53;;;0.53;;
1354;SDS011;671;48.972;9.276;2022-09-24T04:23:10;0.50;;;0.50;;
1354;SDS011;671;48.972;9.276;2022-09-24T04:25:37;0.40;;;0.40;;
1354;SDS011;671;48.972;9.276;2022-09-24T04:28:05;0.50;;;0.50;;
1354;SDS011;671;48.972;9.276;2022-09-24T04:30:34;0.50;;;0.50;;
1354;SDS011;671;48.972;9.276;2022-09-24T04:33:01;0.60;;;0.60;;
1354;SDS011;671;48.972;9.276;2022-09-24T04:35:28;0.50;;;0.50;;
1354;SDS011;671;48.972;9.276;2022-09-24T04:37:57;0.50;;;0.50;;
1354;SDS011;671;48.972;9.276;2022-09-24T04:40:24;0.50;;;0.50;;
1354;SDS011;671;48.972;9.276;2022-09-24T04:42:51;0.40;;;0.40;;
1354;SDS011;671;48.972;9.276;2022-09-24T04:45:18;0.40;;;0.40;;
1354;SDS011;671;48.972;9.276;2022-09-24T04:47:47;0.40;;;0.30;;
1354;SDS011;671;48.972;9.276;2022-09-24T04:50:20;0.50;;;0.50;;
1354;SDS011;671;48.972;9.276;2022-09-24T04:52:47;0.53;;;0.53;;
1354;SDS011;671;48.972;9.276;2022-09-24T04:55:14;0.60;;;0.60;;
1354;SDS011;671;48.972;9.276;2022-09-24T04:57:41;0.40;;;0.40;;
1354;SDS011;671;48.972;9.276;2022-09-24T05:00:11;0.40;;;0.40;;
1354;SDS011;671;48.972;9.276;2022-09-24T05:02:41;0.50;;;0.50;;
1354;SDS011;671;48.972;9.276;2022-09-24T05:05:08;0.47;;;0.47;;
1354;SDS011;671;48.972;9.276;2022-09-24T05:07:36;0.40;;;0.40;;
1354;SDS011;671;48.972;9.276;2022-09-24T05:10:03;0.40;;;0.33;;
1354;SDS011;671;48.972;9.276;2022-09-24T05:12:31;0.50;;;0.50;;
1354;SDS011;671;48.972;9.276;2022-09-24T05:15:01;0.60;;;0.60;;
1354;SDS011;671;48.972;9.276;2022-09-24T05:17:28;0.50;;;0.50;;
1354;SDS011;671;48.972;9.276;2022-09-24T05:19:55;0.40;;;0.40;;
1354;SDS011;671;48.972;9.276;2022-09-24T05:22:23;0.60;;;0.60;;
1354;SDS011;671;48.972;9.276;2022-09-24T05:24:50;0.50;;;0.50;;
1354;SDS011;671;48.972;9.276;2022-09-24T05:27:17;0.40;;;0.40;;
1354;SDS011;671;48.972;9.276;2022-09-24T05:29:44;0.40;;;0.40;;
1354;SDS011;671;48.972;9.276;2022-09-24T05:32:12;0.50;;;0.50;;
1354;SDS011;671;48.972;9.276;2022-09-24T05:34:43;0.40;;;0.40;;
1354;SDS011;671;48.972;9.276;2022-09-24T05:37:11;0.50;;;0.50;;
1354;SDS011;671;48.972;9.276;2022-09-24T05:39:38;0.40;;;0.40;;
1354;SDS011;671;48.972;9.276;2022-09-24T05:42:04;0.37;;;0.37;;
1354;SDS011;671;48.972;9.276;2022-09-24T05:44:32;0.30;;;0.30;;
1354;SDS011;671;48.972;9.276;2022-09-24T05:46:59;0.50;;;0.50;;
1354;SDS011;671;48.972;9.276;2022-09-24T05:49:25;0.40;;;0.40;;
1354;SDS011;671;48.972;9.276;2022-09-24T05:51:52;0.50;;;0.50;;
1354;SDS011;671;48.972;9.276;2022-09-24T05:54:18;0.60;;;0.60;;
1354;SDS011;671;48.972;9.276;2022-09-24T05:56:44;0.50;;;0.50;;
1354;SDS011;671;48.972;9.276;2022-09-24T05:59:12;0.40;;;0.40;;
1354;SDS011;671;48.972;9.276;2022-09-24T06:01:38;0.60;;;0.60;;
1354;SDS011;671;48.972;9.276;2022-09-24T06:04:05;0.50;;;0.50;;
1354;SDS011;671;48.972;9.276;2022-09-24T06:06:32;0.40;;;0.33;;
1354;SDS011;671;48.972;9.276;2022-09-24T06:08:59;0.50;;;0.50;;
1354;SDS011;671;48.972;9.276;2022-09-24T06:11:25;0.40;;;0.40;;
1354;SDS011;671;48.972;9.276;2022-09-24T06:14:00;0.50;;;0.50;;
1354;SDS011;671;48.972;9.276;2022-09-24T06:16:28;0.40;;;0.30;;
1354;SDS011;671;48.972;9.276;2022-09-24T06:18:54;0.50;;;0.50;;
1354;SDS011;671;48.972;9.276;2022-09-24T06:21:21;0.50;;;0.50;;
1354;SDS011;671;48.972;9.276;2022-09-24T06:23:47;0.50;;;0.50;;
1354;SDS011;671;48.972;9.276;2022-09-24T06:26:14;0.40;;;0.30;;
1354;SDS011;671;48.972;9.276;2022-09-24T06:28:40;0.50;;;0.50;;
1354;SDS011;671;48.972;9.276;2022-09-24T06:31:07;0.47;;;0.47;;
1354;SDS011;671;48.972;9.276;2022-09-24T06:33:34;0.40;;;0.30;;
1354;SDS011;671;48.972;9.276;2022-09-24T06:36:03;0.50;;;0.50;;
1354;SDS011;671;48.972;9.276;2022-09-24T06:38:30;0.50;;;0.50;;
1354;SDS011;671;48.972;9.276;2022-09-24T06:40:57;0.50;;;0.50;;
1354;SDS011;671;48.972;9.276;2022-09-24T06:43:25;0.50;;;0.50;;
1354;SDS011;671;48.972;9.276;2022-09-24T06:45:55;0.50;;;0.50;;
1354;SDS011;671;48.972;9.276;2022-09-24T06:48:22;0.40;;;0.40;;
1354;SDS011;671;48.972;9.276;2022-09-24T06:50:49;0.43;;;0.43;;
1354;SDS011;671;48.972;9.276;2022-09-24T06:53:16;0.47;;;0.47;;
1354;SDS011;671;48.972;9.276;2022-09-24T06:55:43;0.43;;;0.43;;
1354;SDS011;671;48.972;9.276;2022-09-24T06:58:11;0.40;;;0.40;;
1354;SDS011;671;48.972;9.276;2022-09-24T07:00:39;0.50;;;0.50;;
1354;SDS011;671;48.972;9.276;2022-09-24T07:03:11;0.40;;;0.40;;
1354;SDS011;671;48.972;9.276;2022-09-24T07:05:40;0.40;;;0.40;;
1354;SDS011;671;48.972;9.276;2022-09-24T07:08:07;0.43;;;0.43;;
1354;SDS011;671;48.972;9.276;2022-09-24T07:10:33;0.40;;;0.40;;
1354;SDS011;671;48.972;9.276;2022-09-24T07:12:59;0.30;;;0.30;;
1354;SDS011;671;48.972;9.276;2022-09-24T07:15:26;0.40;;;0.30;;
1354;SDS011;671;48.972;9.276;2022-09-24T07:17:55;0.30;;;0.30;;
1354;SDS011;671;48.972;9.276;2022-09-24T07:20:22;0.40;;;0.40;;
1354;SDS011;671;48.972;9.276;2022-09-24T07:22:53;0.50;;;0.50;;
1354;SDS011;671;48.972;9.276;2022-09-24T07:25:20;0.40;;;0.33;;
1354;SDS011;671;48.972;9.276;2022-09-24T07:27:47;0.40;;;0.33;;
1354;SDS011;671;48.972;9.276;2022-09-24T07:30:14;0.40;;;0.40;;
1354;SDS011;671;48.972;9.276;2022-09-24T07:32:40;0.40;;;0.40;;
1354;SDS011;671;48.972;9.276;2022-09-24T07:35:07;0.40;;;0.40;;
1354;SDS011;671;48.972;9.276;2022-09-24T07:37:34;0.50;;;0.50;;
1354;SDS011;671;48.972;9.276;2022-09-24T07:40:01;0.40;;;0.40;;
1354;SDS011;671;48.972;9.276;2022-09-24T07:42:27;0.37;;;0.37;;
1354;SDS011;671;48.972;9.276;2022-09-24T07:44:54;0.40;;;0.40;;
1354;SDS011;671;48.972;9.276;2022-09-24T07:47:22;0.30;;;0.20;;
1354;SDS011;671;48.972;9.276;2022-09-24T07:49:48;0.40;;;0.40;;
1354;SDS011;671;48.972;9.276;2022-09-24T07:52:15;0.40;;;0.40;;
1354;SDS011;671;48.972;9.276;2022-09-24T07:54:41;0.40;;;0.30;;
1354;SDS011;671;48.972;9.276;2022-09-24T07:57:08;0.40;;;0.30;;
1354;SDS011;671;48.972;9.276;2022-09-24T07:59:39;0.40;;;0.37;;
1354;SDS011;671;48.972;9.276;2022-09-24T08:02:16;0.40;;;0.30;;
1354;SDS011;671;48.972;9.276;2022-09-24T08:04:43;0.37;;;0.37;;
1354;SDS011;671;48.972;9.276;2022-09-24T08:07:11;0.30;;;0.30;;
1354;SDS011;671;48.972;9.276;2022-09-24T08:09:38;0.30;;;0.30;;
1354;SDS011;671;48.972;9.276;2022-09-24T08:12:05;0.33;;;0.30;;
1354;SDS011;671;48.972;9.276;2022-09-24T08:14:32;0.30;;;0.30;;
1354;SDS011;671;48.972;9.276;2022-09-24T08:16:59;0.40;;;0.40;;
1354;SDS011;671;48.972;9.276;2022-09-24T08:19:27;0.37;;;0.37;;
1354;SDS011;671;48.972;9.276;2022-09-24T08:21:55;0.30;;;0.30;;
1354;SDS011;671;48.972;9.276;2022-09-24T08:24:23;0.50;;;0.50;;
1354;SDS011;671;48.972;9.276;2022-09-24T08:26:49;0.30;;;0.20;;
1354;SDS011;671;48.972;9.276;2022-09-24T08:29:16;0.30;;;0.30;;
1354;SDS011;671;48.972;9.276;2022-09-24T08:31:43;0.30;;;0.30;;
1354;SDS011;671;48.972;9.276;2022-09-24T08:34:09;0.30;;;0.20;;
1354;SDS011;671;48.972;9.276;2022-09-24T08:36:36;0.30;;;0.30;;
1354;SDS011;671;48.972;9.276;2022-09-24T08:39:02;0.40;;;0.30;;
1354;SDS011;671;48.972;9.276;2022-09-24T08:41:39;0.40;;;0.30;;
1354;SDS011;671;48.972;9.276;2022-09-24T08:47:31;0.30;;;0.30;;
1354;SDS011;671;48.972;9.276;2022-09-24T08:50:04;0.30;;;0.30;;
1354;SDS011;671;48.972;9.276;2022-09-24T08:55:13;0.30;;;0.30;;
1354;SDS011;671;48.972;9.276;2022-09-24T09:03:35;0.30;;;0.30;;
1354;SDS011;671;48.972;9.276;2022-09-24T09:06:11;0.30;;;0.30;;
1354;SDS011;671;48.972;9.276;2022-09-24T09:09:09;0.30;;;0.20;;
1354;SDS011;671;48.972;9.276;2022-09-24T09:11:37;0.30;;;0.20;;
1354;SDS011;671;48.972;9.276;2022-09-24T09:14:08;0.30;;;0.30;;
1354;SDS011;671;48.972;9.276;2022-09-24T09:16:47;0.30;;;0.23;;
1354;SDS011;671;48.972;9.276;2022-09-24T09:19:18;0.30;;;0.30;;
1354;SDS011;671;48.972;9.276;2022-09-24T09:21:51;0.30;;;0.30;;
1354;SDS011;671;48.972;9.276;2022-09-24T09:24:38;0.30;;;0.30;;
1354;SDS011;671;48.972;9.276;2022-09-24T09:27:10;0.30;;;0.20;;
1354;SDS011;671;48.972;9.276;2022-09-24T09:29:40;0.30;;;0.30;;
1354;SDS011;671;48.972;9.276;2022-09-24T09:32:23;0.30;;;0.30;;
1354;SDS011;671;48.972;9.276;2022-09-24T09:37:48;0.30;;;0.30;;
1354;SDS011;671;48.972;9.276;2022-09-24T09:40:31;0.30;;;0.30;;
1354;SDS011;671;48.972;9.276;2022-09-24T09:43:04;0.30;;;0.30;;
1354;SDS011;671;48.972;9.276;2022-09-24T09:48:45;0.30;;;0.20;;
1354;SDS011;671;48.972;9.276;2022-09-24T09:51:17;0.30;;;0.20;;
1354;SDS011;671;48.972;9.276;2022-09-24T09:53:55;0.30;;;0.20;;
1354;SDS011;671;48.972;9.276;2022-09-24T09:56:25;0.30;;;0.20;;
1354;SDS011;671;48.972;9.276;2022-09-24T09:59:14;0.30;;;0.30;;
1354;SDS011;671;48.972;9.276;2022-09-24T10:01:45;0.30;;;0.20;;
1354;SDS011;671;48.972;9.276;2022-09-24T10:07:06;0.30;;;0.20;;
1354;SDS011;671;48.972;9.276;2022-09-24T10:09:38;0.30;;;0.20;;
1354;SDS011;671;48.972;9.276;2022-09-24T10:14:59;0.30;;;0.20;;
1354;SDS011;671;48.972;9.276;2022-09-24T10:17:28;0.30;;;0.20;;
1354;SDS011;671;48.972;9.276;2022-09-24T10:19:58;0.30;;;0.30;;
1354;SDS011;671;48.972;9.276;2022-09-24T10:22:26;0.30;;;0.30;;
1354;SDS011;671;48.972;9.276;2022-09-24T10:24:54;0.30;;;0.20;;
1354;SDS011;671;48.972;9.276;2022-09-24T10:30:00;0.30;;;0.20;;
1354;SDS011;671;48.972;9.276;2022-09-24T10:32:54;0.30;;;0.20;;
1354;SDS011;671;48.972;9.276;2022-09-24T10:35:25;0.30;;;0.20;;
1354;SDS011;671;48.972;9.276;2022-09-24T10:37:56;0.30;;;0.20;;
1354;SDS011;671;48.972;9.276;2022-09-24T10:40:25;0.30;;;0.20;;
1354;SDS011;671;48.972;9.276;2022-09-24T10:42:56;0.30;;;0.20;;
1354;SDS011;671;48.972;9.276;2022-09-24T10:48:26;0.30;;;0.20;;
1354;SDS011;671;48.972;9.276;2022-09-24T10:56:43;0.30;;;0.20;;
1354;SDS011;671;48.972;9.276;2022-09-24T11:09:45;0.30;;;0.20;;
1354;SDS011;671;48.972;9.276;2022-09-24T11:20:34;0.30;;;0.20;;
1354;SDS011;671;48.972;9.276;2022-09-24T11:25:59;0.30;;;0.20;;
1354;SDS011;671;48.972;9.276;2022-09-24T11:34:13;0.30;;;0.20;;
1354;SDS011;671;48.972;9.276;2022-09-24T11:42:27;0.30;;;0.20;;
1354;SDS011;671;48.972;9.276;2022-09-24T11:45:19;0.30;;;0.20;;
1354;SDS011;671;48.972;9.276;2022-09-24T11:53:39;0.30;;;0.20;;
1354;SDS011;671;48.972;9.276;2022-09-24T11:58:58;0.30;;;0.20;;
1354;SDS011;671;48.972;9.276;2022-09-24T12:01:31;0.30;;;0.20;;
1354;SDS011;671;48.972;9.276;2022-09-24T12:06:34;0.30;;;0.20;;
1354;SDS011;671;48.972;9.276;2022-09-24T12:12:03;0.30;;;0.20;;
1354;SDS011;671;48.972;9.276;2022-09-24T12:14:55;0.30;;;0.20;;
1354;SDS011;671;48.972;9.276;2022-09-24T12:20:31;0.30;;;0.20;;
1354;SDS011;671;48.972;9.276;2022-09-24T12:23:11;0.30;;;0.20;;
1354;SDS011;671;48.972;9.276;2022-09-24T12:25:43;0.30;;;0.20;;
1354;SDS011;671;48.972;9.276;2022-09-24T12:28:12;0.30;;;0.20;;
1354;SDS011;671;48.972;9.276;2022-09-24T12:32:10;0.30;;;0.20;;
1354;SDS011;671;48.972;9.276;2022-09-24T12:34:25;0.30;;;0.20;;
1354;SDS011;671;48.972;9.276;2022-09-24T12:37:12;0.30;;;0.20;;
1354;SDS011;671;48.972;9.276;2022-09-24T12:40:00;0.30;;;0.20;;
1354;SDS011;671;48.972;9.276;2022-09-24T12:42:48;0.30;;;0.20;;
1354;SDS011;671;48.972;9.276;2022-09-24T12:45:19;0.30;;;0.20;;
1354;SDS011;671;48.972;9.276;2022-09-24T12:47:48;0.30;;;0.20;;
1354;SDS011;671;48.972;9.276;2022-09-24T12:50:25;0.30;;;0.20;;
1354;SDS011;671;48.972;9.276;2022-09-24T12:52:54;0.30;;;0.20;;
1354;SDS011;671;48.972;9.276;2022-09-24T12:55:28;0.30;;;0.20;;
1354;SDS011;671;48.972;9.276;2022-09-24T12:58:06;0.30;;;0.20;;
1354;SDS011;671;48.972;9.276;2022-09-24T13:00:49;0.30;;;0.20;;
1354;SDS011;671;48.972;9.276;2022-09-24T13:03:31;0.30;;;0.20;;
1354;SDS011;671;48.972;9.276;2022-09-24T13:06:01;0.30;;;0.20;;
1354;SDS011;671;48.972;9.276;2022-09-24T13:08:38;0.30;;;0.20;;
1354;SDS011;671;48.972;9.276;2022-09-24T13:11:25;0.30;;;0.20;;
1354;SDS011;671;48.972;9.276;2022-09-24T13:14:19;0.30;;;0.20;;
1354;SDS011;671;48.972;9.276;2022-09-24T13:16:47;0.30;;;0.20;;
1354;SDS011;671;48.972;9.276;2022-09-24T13:21:59;0.30;;;0.20;;
1354;SDS011;671;48.972;9.276;2022-09-24T13:24:28;0.30;;;0.20;;
1354;SDS011;671;48.972;9.276;2022-09-24T13:27:23;0.30;;;0.20;;
1354;SDS011;671;48.972;9.276;2022-09-24T13:30:01;0.30;;;0.20;;
1354;SDS011;671;48.972;9.276;2022-09-24T13:32:41;0.30;;;0.30;;
1354;SDS011;671;48.972;9.276;2022-09-24T13:35:14;0.30;;;0.20;;
1354;SDS011;671;48.972;9.276;2022-09-24T13:37:48;0.30;;;0.27;;
1354;SDS011;671;48.972;9.276;2022-09-24T13:40:20;0.30;;;0.30;;
1354;SDS011;671;48.972;9.276;2022-09-24T13:43:04;0.30;;;0.20;;
1354;SDS011;671;48.972;9.276;2022-09-24T13:45:38;0.30;;;0.20;;
1354;SDS011;671;48.972;9.276;2022-09-24T13:48:16;0.30;;;0.20;;
1354;SDS011;671;48.972;9.276;2022-09-24T13:50:55;0.30;;;0.30;;
1354;SDS011;671;48.972;9.276;2022-09-24T13:53:26;0.30;;;0.20;;
1354;SDS011;671;48.972;9.276;2022-09-24T13:56:19;0.30;;;0.20;;
1354;SDS011;671;48.972;9.276;2022-09-24T13:58:47;0.30;;;0.20;;
1354;SDS011;671;48.972;9.276;2022-09-24T14:03:53;0.30;;;0.20;;
1354;SDS011;671;48.972;9.276;2022-09-24T14:06:30;0.30;;;0.20;;
1354;SDS011;671;48.972;9.276;2022-09-24T14:09:02;0.30;;;0.20;;
1354;SDS011;671;48.972;9.276;2022-09-24T14:11:49;0.30;;;0.30;;
1354;SDS011;671;48.972;9.276;2022-09-24T14:14:18;0.30;;;0.20;;
1354;SDS011;671;48.972;9.276;2022-09-24T14:16:46;0.30;;;0.20;;
1354;SDS011;671;48.972;9.276;2022-09-24T14:19:12;0.30;;;0.20;;
1354;SDS011;671;48.972;9.276;2022-09-24T14:22:01;0.30;;;0.20;;
1354;SDS011;671;48.972;9.276;2022-09-24T14:24:32;0.30;;;0.20;;
1354;SDS011;671;48.972;9.276;2022-09-24T14:27:12;0.30;;;0.30;;
1354;SDS011;671;48.972;9.276;2022-09-24T14:29:44;0.30;;;0.20;;
1354;SDS011;671;48.972;9.276;2022-09-24T14:34:53;0.30;;;0.20;;
1354;SDS011;671;48.972;9.276;2022-09-24T14:37:30;0.30;;;0.20;;
1354;SDS011;671;48.972;9.276;2022-09-24T14:40:21;0.30;;;0.20;;
1354;SDS011;671;48.972;9.276;2022-09-24T14:42:47;0.30;;;0.30;;
1354;SDS011;671;48.972;9.276;2022-09-24T14:45:29;0.30;;;0.20;;
1354;SDS011;671;48.972;9.276;2022-09-24T14:50:49;0.30;;;0.27;;
1354;SDS011;671;48.972;9.276;2022-09-24T14:53:31;0.30;;;0.20;;
1354;SDS011;671;48.972;9.276;2022-09-24T14:56:05;0.30;;;0.20;;
1354;SDS011;671;48.972;9.276;2022-09-24T14:58:52;0.30;;;0.20;;
1354;SDS011;671;48.972;9.276;2022-09-24T15:01:20;0.30;;;0.27;;
1354;SDS011;671;48.972;9.276;2022-09-24T15:03:50;0.30;;;0.20;;
1354;SDS011;671;48.972;9.276;2022-09-24T15:09:06;0.30;;;0.20;;
1354;SDS011;671;48.972;9.276;2022-09-24T15:11:53;0.30;;;0.20;;
1354;SDS011;671;48.972;9.276;2022-09-24T15:14:22;0.30;;;0.27;;
1354;SDS011;671;48.972;9.276;2022-09-24T15:17:06;0.30;;;0.20;;
1354;SDS011;671;48.972;9.276;2022-09-24T15:19:35;0.30;;;0.30;;
1354;SDS011;671;48.972;9.276;2022-09-24T15:22:06;0.30;;;0.20;;
1354;SDS011;671;48.972;9.276;2022-09-24T15:24:33;0.30;;;0.20;;
1354;SDS011;671;48.972;9.276;2022-09-24T15:27:03;0.30;;;0.20;;
1354;SDS011;671;48.972;9.276;2022-09-24T15:29:32;0.30;;;0.20;;
1354;SDS011;671;48.972;9.276;2022-09-24T15:31:58;0.30;;;0.20;;
1354;SDS011;671;48.972;9.276;2022-09-24T15:34:25;0.30;;;0.20;;
1354;SDS011;671;48.972;9.276;2022-09-24T15:36:54;0.30;;;0.20;;
1354;SDS011;671;48.972;9.276;2022-09-24T15:39:24;0.30;;;0.20;;
1354;SDS011;671;48.972;9.276;2022-09-24T15:41:52;0.30;;;0.20;;
1354;SDS011;671;48.972;9.276;2022-09-24T15:44:20;0.30;;;0.20;;
1354;SDS011;671;48.972;9.276;2022-09-24T15:46:49;0.30;;;0.20;;
1354;SDS011;671;48.972;9.276;2022-09-24T15:49:16;0.30;;;0.30;;
1354;SDS011;671;48.972;9.276;2022-09-24T15:51:50;0.30;;;0.20;;
1354;SDS011;671;48.972;9.276;2022-09-24T15:54:20;0.30;;;0.20;;
1354;SDS011;671;48.972;9.276;2022-09-24T15:56:49;0.30;;;0.20;;
1354;SDS011;671;48.972;9.276;2022-09-24T15:59:20;0.30;;;0.30;;
1354;SDS011;671;48.972;9.276;2022-09-24T16:01:48;0.30;;;0.20;;
1354;SDS011;671;48.972;9.276;2022-09-24T16:04:16;0.30;;;0.30;;
1354;SDS011;671;48.972;9.276;2022-09-24T16:06:43;0.30;;;0.30;;
1354;SDS011;671;48.972;9.276;2022-09-24T16:09:09;0.30;;;0.30;;
1354;SDS011;671;48.972;9.276;2022-09-24T16:11:36;0.30;;;0.30;;
1354;SDS011;671;48.972;9.276;2022-09-24T16:14:02;0.30;;;0.20;;
1354;SDS011;671;48.972;9.276;2022-09-24T16:16:30;0.30;;;0.30;;
1354;SDS011;671;48.972;9.276;2022-09-24T16:18:57;0.30;;;0.20;;
1354;SDS011;671;48.972;9.276;2022-09-24T16:21:23;0.30;;;0.30;;
1354;SDS011;671;48.972;9.276;2022-09-24T16:23:55;0.30;;;0.30;;
1354;SDS011;671;48.972;9.276;2022-09-24T16:26:22;0.30;;;0.20;;
1354;SDS011;671;48.972;9.276;2022-09-24T16:28:49;0.30;;;0.20;;
1354;SDS011;671;48.972;9.276;2022-09-24T16:31:17;0.40;;;0.30;;
1354;SDS011;671;48.972;9.276;2022-09-24T16:33:44;0.30;;;0.20;;
1354;SDS011;671;48.972;9.276;2022-09-24T16:36:11;0.30;;;0.20;;
1354;SDS011;671;48.972;9.276;2022-09-24T16:38:38;0.30;;;0.20;;
1354;SDS011;671;48.972;9.276;2022-09-24T16:41:05;0.30;;;0.30;;
1354;SDS011;671;48.972;9.276;2022-09-24T16:43:32;0.30;;;0.30;;
1354;SDS011;671;48.972;9.276;2022-09-24T16:45:59;0.30;;;0.20;;
1354;SDS011;671;48.972;9.276;2022-09-24T16:48:30;0.30;;;0.30;;
1354;SDS011;671;48.972;9.276;2022-09-24T16:51:04;0.30;;;0.30;;
1354;SDS011;671;48.972;9.276;2022-09-24T16:53:33;0.30;;;0.30;;
1354;SDS011;671;48.972;9.276;2022-09-24T16:56:03;0.30;;;0.27;;
1354;SDS011;671;48.972;9.276;2022-09-24T16:58:35;0.30;;;0.30;;
1354;SDS011;671;48.972;9.276;2022-09-24T17:01:05;0.30;;;0.30;;
1354;SDS011;671;48.972;9.276;2022-09-24T17:03:32;0.30;;;0.30;;
1354;SDS011;671;48.972;9.276;2022-09-24T17:05:59;0.30;;;0.30;;
1354;SDS011;671;48.972;9.276;2022-09-24T17:08:26;0.30;;;0.20;;
1354;SDS011;671;48.972;9.276;2022-09-24T17:11:13;0.30;;;0.30;;
1354;SDS011;671;48.972;9.276;2022-09-24T17:13:39;0.30;;;0.30;;
1354;SDS011;671;48.972;9.276;2022-09-24T17:16:06;0.30;;;0.30;;
1354;SDS011;671;48.972;9.276;2022-09-24T17:18:33;0.30;;;0.30;;
1354;SDS011;671;48.972;9.276;2022-09-24T17:21:02;0.33;;;0.33;;
1354;SDS011;671;48.972;9.276;2022-09-24T17:23:30;0.30;;;0.23;;
1354;SDS011;671;48.972;9.276;2022-09-24T17:26:00;0.30;;;0.20;;
1354;SDS011;671;48.972;9.276;2022-09-24T17:28:32;0.30;;;0.30;;
1354;SDS011;671;48.972;9.276;2022-09-24T17:31:02;0.30;;;0.30;;
1354;SDS011;671;48.972;9.276;2022-09-24T17:33:29;0.30;;;0.30;;
1354;SDS011;671;48.972;9.276;2022-09-24T17:35:56;0.30;;;0.30;;
1354;SDS011;671;48.972;9.276;2022-09-24T17:38:25;0.30;;;0.30;;
1354;SDS011;671;48.972;9.276;2022-09-24T17:40:55;0.30;;;0.30;;
1354;SDS011;671;48.972;9.276;2022-09-24T17:43:23;0.30;;;0.30;;
1354;SDS011;671;48.972;9.276;2022-09-24T17:46:09;0.30;;;0.20;;
1354;SDS011;671;48.972;9.276;2022-09-24T17:48:38;0.30;;;0.20;;
1354;SDS011;671;48.972;9.276;2022-09-24T17:51:16;0.30;;;0.20;;
1354;SDS011;671;48.972;9.276;2022-09-24T17:53:45;0.30;;;0.30;;